Time;durP1;ratioP1;P1;durP2;ratioP2;P2;SDS_P1;SDS_P2;PMS_P1;PMS_P2;Temp;Humidity;BMP_temperature;BMP_pressure;BME280_temperature;BME280_humidity;BME280_pressure;Samples;Min_cycle;Max_cycle;Signal;HPM_P1;HPM_P2
2022/03/01 00:00:58;;;;;;;17.25;11.25;;;;;;;2.75;61.13;102628.88;5303990;28;20122;-81
2022/03/01 00:03:30;;;;;;;18.90;11.90;;;;;;;2.71;61.41;102626.97;5322362;28;20039;-77
2022/03/01 00:06:01;;;;;;;18.87;12.57;;;;;;;2.73;61.19;102627.91;5324677;28;20027;-79
2022/03/01 00:08:32;;;;;;;19.10;13.23;;;;;;;2.64;62.53;102630.03;5309326;28;20065;-80
2022/03/01 00:11:04;;;;;;;20.77;13.23;;;;;;;2.54;63.48;102647.63;5303457;28;20076;-77
2022/03/01 00:13:36;;;;;;;18.33;12.70;;;;;;;2.49;63.83;102631.03;5321446;28;20039;-77
2022/03/01 00:16:08;;;;;;;19.08;12.07;;;;;;;2.31;63.89;102633.56;5324769;28;20023;-77
2022/03/01 00:18:39;;;;;;;18.93;11.80;;;;;;;2.29;64.66;102635.19;5305920;28;20042;-82
2022/03/01 00:21:11;;;;;;;19.47;12.53;;;;;;;2.16;65.62;102630.22;5303431;28;20047;-77
2022/03/01 00:23:42;;;;;;;19.33;12.33;;;;;;;2.05;65.64;102628.78;5303969;28;20032;-80
2022/03/01 00:26:14;;;;;;;20.43;13.07;;;;;;;1.96;65.99;102624.91;5304961;28;20103;-77
2022/03/01 00:28:45;;;;;;;18.40;12.90;;;;;;;1.91;66.46;102628.06;5326808;28;20470;-74
2022/03/01 00:31:17;;;;;;;20.33;13.27;;;;;;;1.79;66.65;102626.63;5346071;28;20027;-78
2022/03/01 00:33:48;;;;;;;18.83;12.93;;;;;;;1.79;67.43;102624.03;5339912;28;20027;-80
2022/03/01 00:36:19;;;;;;;16.53;12.37;;;;;;;1.68;67.03;102621.72;5329722;28;20023;-80
2022/03/01 00:38:51;;;;;;;21.00;13.57;;;;;;;1.61;68.08;102630.75;5307355;28;20062;-77
2022/03/01 00:41:22;;;;;;;19.67;13.77;;;;;;;1.61;67.93;102630.75;5307114;28;20509;-77
2022/03/01 00:43:53;;;;;;;19.27;12.47;;;;;;;1.44;67.23;102635.00;5307205;28;20032;-79
2022/03/01 00:46:26;;;;;;;18.03;12.90;;;;;;;1.33;68.23;102631.84;5306819;28;20028;-81
2022/03/01 00:48:59;;;;;;;19.90;13.25;;;;;;;1.37;67.93;102628.66;5327469;28;20077;-76
2022/03/01 00:51:30;;;;;;;18.20;11.90;;;;;;;1.37;67.73;102622.59;5327806;28;20103;-78
2022/03/01 00:54:02;;;;;;;17.30;12.77;;;;;;;1.36;67.80;102624.31;5306328;28;20099;-78
2022/03/01 00:56:34;;;;;;;19.47;12.70;;;;;;;1.37;67.45;102626.09;5316803;28;20397;-76
2022/03/01 00:59:07;;;;;;;17.08;11.90;;;;;;;1.41;67.13;102625.44;5328191;28;20501;-76
2022/03/01 01:01:39;;;;;;;19.17;12.45;;;;;;;1.43;67.29;102626.44;5317417;28;20074;-75
2022/03/01 01:04:10;;;;;;;17.43;12.23;;;;;;;1.38;68.45;102632.97;5306615;28;20024;-79
2022/03/01 01:06:42;;;;;;;19.10;12.27;;;;;;;1.35;67.63;102625.09;5306418;28;20035;-83
2022/03/01 01:09:14;;;;;;;18.40;11.90;;;;;;;1.30;68.18;102618.81;5306047;28;20016;-78
2022/03/01 01:11:45;;;;;;;17.67;11.63;;;;;;;1.23;68.54;102620.19;5315909;28;20144;-76
2022/03/01 01:14:16;;;;;;;18.33;12.33;;;;;;;1.15;68.59;102623.13;5327276;28;20553;-78
2022/03/01 01:16:48;;;;;;;20.63;13.17;;;;;;;1.15;69.29;102620.56;5316547;28;20468;-83
2022/03/01 01:19:19;;;;;;;18.33;11.80;;;;;;;1.17;68.70;102631.81;5306216;28;20478;-80
2022/03/01 01:24:40;;;;;;;19.60;11.98;;;;;;;1.18;69.05;102618.16;5327363;28;20035;-81
2022/03/01 01:27:12;;;;;;;17.73;12.40;;;;;;;1.15;69.11;102621.44;5313620;28;20377;-83
2022/03/01 01:29:43;;;;;;;18.20;12.30;;;;;;;1.16;68.63;102619.75;5306126;28;20103;-81
2022/03/01 01:32:15;;;;;;;17.43;12.73;;;;;;;1.17;68.84;102619.84;5317220;28;20031;-77
2022/03/01 01:34:46;;;;;;;17.90;11.63;;;;;;;1.20;68.24;102622.56;5327342;28;20047;-77
2022/03/01 01:37:17;;;;;;;20.63;13.23;;;;;;;0.98;68.50;102619.63;5314697;28;20035;-81
2022/03/01 01:39:49;;;;;;;22.10;12.23;;;;;;;1.22;67.61;102617.53;5305054;28;20480;-78
2022/03/01 01:42:20;;;;;;;16.83;11.27;;;;;;;1.19;67.69;102622.50;5318258;28;20035;-78
2022/03/01 01:44:52;;;;;;;21.03;12.83;;;;;;;1.20;67.70;102622.56;5326767;28;20032;-81
2022/03/01 01:47:23;;;;;;;17.77;12.77;;;;;;;1.21;67.79;102624.34;5326613;28;20049;-79
2022/03/01 01:49:55;;;;;;;19.10;13.20;;;;;;;1.24;67.13;102623.63;5326060;28;20025;-76
2022/03/01 01:52:27;;;;;;;17.37;11.93;;;;;;;1.24;67.39;102618.47;5326657;28;20053;-78
2022/03/01 01:54:59;;;;;;;18.88;11.15;;;;;;;1.31;66.60;102620.59;5318794;28;20044;-82
2022/03/01 01:57:30;;;;;;;19.90;12.03;;;;;;;1.37;66.09;102617.47;5305657;28;20082;-81
2022/03/01 02:00:04;;;;;;;18.53;12.47;;;;;;;1.44;66.15;102617.88;5297033;28;20311;-78
2022/03/01 02:02:35;;;;;;;18.23;11.00;;;;;;;1.49;65.11;102619.84;5326536;28;20102;-80
2022/03/01 02:05:08;;;;;;;20.30;12.23;;;;;;;1.54;64.74;102613.25;5326552;28;20118;-78
2022/03/01 02:07:44;;;;;;;;;;;;;;;1.53;64.46;102616.63;5326823;28;20024;-83
2022/03/01 02:10:16;;;;;;;17.13;11.60;;;;;;;1.57;64.42;102613.41;5326845;28;19922;-76
2022/03/01 02:12:48;;;;;;;16.27;11.10;;;;;;;1.57;64.43;102609.16;5317104;28;20390;-76
2022/03/01 02:15:19;;;;;;;17.63;11.60;;;;;;;1.58;64.38;102613.50;5314946;28;20103;-78
2022/03/01 02:17:51;;;;;;;19.13;10.97;;;;;;;1.55;63.82;102604.75;5328817;28;20457;-79
2022/03/01 02:20:23;;;;;;;17.23;11.63;;;;;;;1.60;64.11;102613.59;5320478;28;20028;-81
2022/03/01 02:22:56;;;;;;;21.38;11.68;;;;;;;1.57;64.33;102606.59;5306719;28;20035;-81
2022/03/01 02:25:27;;;;;;;19.60;11.52;;;;;;;1.56;63.65;102607.41;5306660;28;20028;-80
2022/03/01 02:27:59;;;;;;;18.90;11.67;;;;;;;1.56;64.11;102612.53;5305224;28;20097;-81
2022/03/01 02:30:31;;;;;;;15.77;10.60;;;;;;;1.57;64.04;102609.16;5326364;28;20378;-78
2022/03/01 02:33:03;;;;;;;19.58;11.25;;;;;;;1.60;64.14;102618.72;5325702;28;20761;-79
2022/03/01 02:35:35;;;;;;;18.67;10.93;;;;;;;1.59;63.34;102622.97;5304770;28;20107;-83
2022/03/01 02:38:06;;;;;;;20.10;11.43;;;;;;;1.62;63.61;102607.72;5304505;28;20036;-79
2022/03/01 02:40:37;;;;;;;14.43;11.10;;;;;;;1.68;63.00;102608.88;5304375;28;20403;-81
2022/03/01 02:43:10;;;;;;;18.07;11.30;;;;;;;1.68;63.11;102607.16;5318399;28;20032;-79
2022/03/01 02:45:41;;;;;;;16.65;11.15;;;;;;;1.71;63.22;102607.31;5326117;28;20062;-81
2022/03/01 02:48:13;;;;;;;18.33;11.43;;;;;;;1.74;62.78;102598.88;5325432;28;20055;-80
2022/03/01 02:50:44;;;;;;;18.60;12.73;;;;;;;1.79;62.74;102600.03;5325986;28;20024;-80
2022/03/01 02:53:15;;;;;;;20.30;10.90;;;;;;;1.80;62.35;102592.41;5312042;28;20106;-77
2022/03/01 02:55:47;;;;;;;17.93;10.70;;;;;;;1.86;61.66;102593.50;5304414;28;20031;-82
2022/03/01 02:58:18;;;;;;;16.57;11.30;;;;;;;1.91;61.37;102595.50;5317466;28;20070;-79
2022/03/01 03:00:49;;;;;;;19.37;12.03;;;;;;;1.93;61.94;102586.19;5319726;28;20126;-78
2022/03/01 03:03:21;;;;;;;19.90;12.10;;;;;;;1.95;61.77;102587.16;5304378;28;20024;-77
2022/03/01 03:05:52;;;;;;;17.00;11.23;;;;;;;2.00;60.80;102585.69;5304743;28;20115;-77
2022/03/01 03:08:23;;;;;;;15.00;10.20;;;;;;;2.04;60.60;102589.28;5286601;28;20093;-77
2022/03/01 03:10:55;;;;;;;17.47;11.23;;;;;;;2.09;60.87;102589.53;5304518;28;20060;-78
2022/03/01 03:13:26;;;;;;;19.43;11.67;;;;;;;2.10;60.58;102581.91;5307466;28;20035;-80
2022/03/01 03:15:57;;;;;;;17.03;10.73;;;;;;;2.08;60.77;102586.09;5326138;28;20027;-80
2022/03/01 03:18:29;;;;;;;14.83;10.83;;;;;;;2.08;60.98;102582.66;5322910;28;20055;-77
2022/03/01 03:21:00;;;;;;;19.70;11.07;;;;;;;2.04;61.17;102586.72;5305370;28;20091;-77
2022/03/01 03:23:33;;;;;;;15.70;10.10;;;;;;;2.03;61.21;102590.13;5305002;28;20089;-80
2022/03/01 03:26:04;;;;;;;;;;;;;;;2.03;60.73;102590.13;5308124;28;20028;-78
2022/03/01 03:28:36;;;;;;;19.30;11.15;;;;;;;2.01;61.47;102591.72;5308745;28;19908;-78
2022/03/01 03:31:07;;;;;;;18.67;10.83;;;;;;;2.00;61.67;102583.13;5327261;28;20036;-76
2022/03/01 03:33:39;;;;;;;19.80;10.87;;;;;;;1.97;61.55;102584.66;5333846;28;20054;-78
2022/03/01 03:36:11;;;;;;;16.13;11.40;;;;;;;1.94;61.82;102589.66;5328584;28;20057;-77
2022/03/01 03:38:43;;;;;;;17.30;10.77;;;;;;;1.92;62.42;102583.53;5326617;28;20535;-79
2022/03/01 03:41:14;;;;;;;16.45;11.25;;;;;;;1.89;62.13;102588.53;5325799;28;20070;-83
2022/03/01 03:43:46;;;;;;;17.00;11.70;;;;;;;1.78;62.05;102593.97;5325605;28;20067;-80
2022/03/01 03:46:18;;;;;;;19.87;11.73;;;;;;;1.81;62.23;102582.97;5326090;28;20027;-78
2022/03/01 03:48:49;;;;;;;15.13;11.00;;;;;;;1.75;61.98;102583.53;5326656;28;20031;-80
2022/03/01 03:51:21;;;;;;;16.00;10.90;;;;;;;1.78;62.14;102591.41;5312448;28;20024;-77
2022/03/01 03:53:52;;;;;;;17.67;11.27;;;;;;;1.78;61.98;102582.81;5304557;28;20055;-76
2022/03/01 03:56:24;;;;;;;16.27;10.23;;;;;;;1.76;62.02;102584.44;5324880;28;20024;-76
2022/03/01 03:58:57;;;;;;;15.90;11.13;;;;;;;1.74;62.34;102578.31;5325898;28;20039;-77
2022/03/01 04:01:29;;;;;;;18.48;11.52;;;;;;;1.76;62.20;102581.88;5304516;28;20024;-77
2022/03/01 04:04:00;;;;;;;16.33;10.93;;;;;;;1.75;61.60;102587.78;5306453;28;20031;-76
2022/03/01 04:06:32;;;;;;;16.90;11.47;;;;;;;1.78;62.08;102587.97;5328597;28;20020;-78
2022/03/01 04:09:05;;;;;;;18.37;12.33;;;;;;;1.80;61.81;102586.34;5328789;28;20031;-81
2022/03/01 04:11:36;;;;;;;17.92;12.10;;;;;;;1.80;61.79;102581.19;5311803;28;20282;-77
2022/03/01 04:14:08;;;;;;;15.90;10.97;;;;;;;1.84;61.74;102587.41;5307474;28;20059;-81
2022/03/01 04:16:42;;;;;;;16.50;11.82;;;;;;;1.86;61.55;102589.25;5308045;28;20435;-77
2022/03/01 04:19:17;;;;;;;15.93;11.38;;;;;;;1.89;61.01;102591.09;5307497;28;20028;-78
2022/03/01 04:21:49;;;;;;;24.45;12.30;;;;;;;1.91;61.03;102592.06;5307699;28;20122;-78
2022/03/01 04:24:20;;;;;;;17.75;12.10;;;;;;;1.95;60.68;102596.56;5307540;28;20099;-83
2022/03/01 04:26:51;;;;;;;19.63;12.47;;;;;;;1.98;60.76;102594.13;5327916;28;20024;-78
2022/03/01 04:29:24;;;;;;;19.40;11.37;;;;;;;2.00;60.58;102598.56;5319142;28;20043;-82
2022/03/01 04:31:56;;;;;;;19.33;11.43;;;;;;;2.02;60.58;102597.75;5289805;28;20201;-82
2022/03/01 04:34:27;;;;;;;19.83;13.83;;;;;;;2.04;60.69;102599.59;5317122;28;20130;-77
2022/03/01 04:36:59;;;;;;;18.43;11.03;;;;;;;2.02;60.95;102598.63;5308369;28;20046;-83
2022/03/01 04:39:30;;;;;;;16.40;11.60;;;;;;;2.03;60.77;102600.41;5328611;28;20034;-79
2022/03/01 04:42:04;;;;;;;20.97;11.73;;;;;;;2.02;61.75;102595.19;5319624;28;20036;-76
2022/03/01 04:44:36;;;;;;;16.25;11.10;;;;;;;2.02;61.84;102596.06;5307026;28;20585;-82
2022/03/01 04:47:07;;;;;;;18.57;11.97;;;;;;;1.98;63.09;102587.31;5307628;28;20023;-82
2022/03/01 04:49:39;;;;;;;18.23;12.13;;;;;;;1.98;62.80;102586.41;5288130;28;20142;-80
2022/03/01 04:52:10;;;;;;;16.23;12.50;;;;;;;1.95;62.15;102592.28;5307559;28;20085;-77
2022/03/01 04:54:42;;;;;;;21.30;12.10;;;;;;;1.97;61.68;102582.97;5307089;28;20387;-77
2022/03/01 04:57:14;;;;;;;14.97;10.50;;;;;;;1.97;61.39;102590.69;5316443;28;20062;-82
2022/03/01 04:59:46;;;;;;;18.13;11.43;;;;;;;1.99;61.80;102586.47;5328233;28;20055;-82
2022/03/01 05:02:17;;;;;;;18.23;11.05;;;;;;;1.99;61.04;102577.91;5315636;28;20016;-78
2022/03/01 05:04:49;;;;;;;18.20;11.83;;;;;;;1.98;61.52;102577.03;5309949;28;20031;-80
2022/03/01 05:07:20;;;;;;;15.83;11.53;;;;;;;2.00;60.97;102575.41;5309356;28;20491;-80
2022/03/01 05:09:51;;;;;;;20.60;11.77;;;;;;;2.03;61.33;102581.50;5316006;28;20092;-78
2022/03/01 05:12:23;;;;;;;17.23;11.83;;;;;;;2.03;60.69;102581.50;5329333;28;20027;-81
2022/03/01 05:14:54;;;;;;;15.27;9.83;;;;;;;2.04;60.49;102584.16;5320223;28;20474;-77
2022/03/01 05:17:25;;;;;;;17.33;11.07;;;;;;;2.07;60.56;102581.75;5313052;28;20497;-78
2022/03/01 05:19:57;;;;;;;18.60;11.40;;;;;;;2.08;60.05;102577.50;5327782;28;20028;-78
2022/03/01 05:22:28;;;;;;;20.20;12.27;;;;;;;2.06;60.87;102585.13;5320119;28;20028;-82
2022/03/01 05:25:01;;;;;;;18.70;12.20;;;;;;;2.08;59.98;102577.50;5305969;28;20107;-80
2022/03/01 05:27:33;;;;;;;17.25;10.82;;;;;;;2.05;60.24;102573.06;5306216;28;20032;-82
2022/03/01 05:30:07;;;;;;;18.55;10.93;;;;;;;2.04;59.98;102570.41;5305921;28;20038;-79
2022/03/01 05:32:42;;;;;;;19.30;11.32;;;;;;;2.04;59.89;102565.28;5312660;28;20015;-77
2022/03/01 05:35:17;;;;;;;18.42;11.98;;;;;;;2.02;60.36;102559.19;5327109;28;20137;-76
2022/03/01 05:37:52;;;;;;;21.20;12.55;;;;;;;1.99;59.92;102563.34;5319116;28;20390;-76
2022/03/01 05:40:26;;;;;;;17.02;11.85;;;;;;;2.00;59.70;102559.09;5305882;28;20052;-80
2022/03/01 05:42:58;;;;;;;22.15;13.80;;;;;;;1.98;60.27;102560.69;5296401;28;20024;-80
2022/03/01 05:45:30;;;;;;;18.08;10.93;;;;;;;1.93;59.87;102555.34;5319749;28;20435;-77
2022/03/01 05:48:02;;;;;;;18.63;11.30;;;;;;;1.88;60.26;102549.03;5305684;28;20137;-78
2022/03/01 05:50:33;;;;;;;18.43;11.93;;;;;;;1.89;60.29;102552.53;5311892;28;20027;-81
2022/03/01 05:53:04;;;;;;;19.13;11.30;;;;;;;1.86;60.30;102555.81;5326775;28;20029;-83
2022/03/01 05:55:36;;;;;;;17.37;11.13;;;;;;;1.83;60.23;102547.94;5309172;27;20450;-77
2022/03/01 05:58:07;;;;;;;18.63;11.27;;;;;;;1.84;60.57;102560.00;5326185;28;20035;-77
2022/03/01 06:00:38;;;;;;;20.20;12.27;;;;;;;1.86;60.09;102560.94;5326783;28;20088;-83
2022/03/01 06:03:13;;;;;;;18.73;12.73;;;;;;;1.87;60.05;102557.59;5326151;28;20479;-78
2022/03/01 06:05:44;;;;;;;20.75;12.63;;;;;;;1.83;60.33;102553.06;5326500;28;20027;-77
2022/03/01 06:08:15;;;;;;;24.17;13.97;;;;;;;1.79;60.25;102552.03;5326252;28;20042;-78
2022/03/01 06:10:47;;;;;;;17.73;11.07;;;;;;;1.76;60.62;102549.31;5326201;28;20030;-80
2022/03/01 06:13:18;;;;;;;19.13;12.57;;;;;;;1.68;62.53;102555.75;5326219;28;20033;-78
2022/03/01 06:15:50;;;;;;;19.80;13.13;;;;;;;1.52;63.94;102545.47;5326247;28;20024;-77
2022/03/01 06:18:21;;;;;;;16.80;11.10;;;;;;;1.49;62.80;102540.16;5307575;28;20503;-79
2022/03/01 06:20:52;;;;;;;20.70;13.27;;;;;;;1.43;62.83;102544.19;5326442;28;20142;-79
2022/03/01 06:23:24;;;;;;;19.00;12.87;;;;;;;1.40;64.15;102548.25;5335795;28;20019;-78
2022/03/01 06:25:55;;;;;;;19.10;11.77;;;;;;;1.34;64.09;102548.84;5341078;28;20038;-80
2022/03/01 06:28:27;;;;;;;17.83;12.93;;;;;;;1.24;65.44;102546.53;5351244;28;20027;-80
2022/03/01 06:30:58;;;;;;;20.83;13.57;;;;;;;1.20;66.09;102549.78;5331762;28;20485;-82
2022/03/01 06:33:30;;;;;;;18.47;11.93;;;;;;;1.17;64.90;102555.63;5325690;28;20050;-81
2022/03/01 06:36:01;;;;;;;18.97;13.27;;;;;;;1.17;67.46;102559.88;5326527;28;20024;-81
2022/03/01 06:38:33;;;;;;;20.57;13.07;;;;;;;1.16;67.41;102563.22;5325832;28;20038;-80
2022/03/01 06:41:04;;;;;;;21.63;13.23;;;;;;;1.14;67.43;102564.84;5325498;28;20048;-76
2022/03/01 06:43:36;;;;;;;20.17;14.13;;;;;;;1.19;68.41;102576.25;5325801;28;20027;-81
2022/03/01 06:46:09;;;;;;;22.27;13.63;;;;;;;1.19;68.80;102572.03;5326076;28;20110;-82
2022/03/01 06:48:40;;;;;;;20.92;13.20;;;;;;;1.25;69.39;102574.03;5325432;28;20039;-76
2022/03/01 06:51:12;;;;;;;19.63;13.50;;;;;;;1.28;68.67;102584.47;5326612;28;20019;-77
2022/03/01 06:53:43;;;;;;;22.80;13.93;;;;;;;1.32;68.36;102573.56;5325465;28;20028;-80
2022/03/01 06:56:14;;;;;;;20.63;12.77;;;;;;;1.38;68.05;102591.84;5325369;28;20031;-78
2022/03/01 06:58:46;;;;;;;19.83;13.07;;;;;;;1.48;68.33;102587.22;5325460;28;20219;-78
2022/03/01 07:01:18;;;;;;;22.85;14.38;;;;;;;1.59;68.20;102596.38;5325804;28;20379;-82
2022/03/01 07:03:49;;;;;;;22.90;14.77;;;;;;;1.68;67.25;102589.16;5325903;28;20024;-77
2022/03/01 07:06:21;;;;;;;19.30;12.83;;;;;;;1.78;66.08;102599.13;5325675;28;20111;-81
2022/03/01 07:08:52;;;;;;;27.50;14.97;;;;;;;1.90;65.69;102604.03;5325588;28;20036;-79
2022/03/01 07:11:24;;;;;;;23.07;14.70;;;;;;;2.02;65.28;102597.75;5325743;28;20020;-78
2022/03/01 07:13:55;;;;;;;19.00;13.20;;;;;;;2.13;64.76;102594.03;5325454;28;20023;-79
2022/03/01 07:16:26;;;;;;;19.70;13.97;;;;;;;2.25;63.45;102596.34;5326525;28;20059;-77
2022/03/01 07:18:59;;;;;;;25.07;13.60;;;;;;;2.38;62.81;102596.16;5326151;28;20024;-82
2022/03/01 07:21:31;;;;;;;27.17;13.93;;;;;;;2.48;63.00;102582.03;5325436;28;20431;-78
2022/03/01 07:24:02;;;;;;;24.42;14.85;;;;;;;2.57;63.50;102586.78;5325165;28;20106;-80
2022/03/01 07:26:35;;;;;;;25.53;14.80;;;;;;;2.65;62.35;102588.03;5324863;28;20039;-77
2022/03/01 07:29:06;;;;;;;26.33;14.88;;;;;;;2.71;62.50;102594.34;5324630;28;20024;-80
2022/03/01 07:31:38;;;;;;;20.67;14.30;;;;;;;2.78;61.11;102595.53;5324859;28;20084;-81
2022/03/01 07:34:10;;;;;;;18.00;14.57;;;;;;;2.87;60.88;102601.13;5306576;28;20031;-79
2022/03/01 07:36:41;;;;;;;24.13;14.67;;;;;;;2.91;60.25;102600.50;5324555;28;20081;-77
2022/03/01 07:39:13;;;;;;;22.87;13.73;;;;;;;3.00;59.57;102597.44;5328850;28;20028;-77
2022/03/01 07:41:44;;;;;;;24.10;14.43;;;;;;;3.05;59.44;102606.28;5328811;28;20072;-78
2022/03/01 07:44:16;;;;;;;24.60;13.47;;;;;;;3.09;58.34;102617.59;5310872;28;20485;-78
2022/03/01 07:46:48;;;;;;;25.80;16.73;;;;;;;3.14;58.87;102615.25;5329520;28;20402;-79
2022/03/01 07:49:19;;;;;;;23.60;14.03;;;;;;;3.16;58.98;102614.53;5331585;28;20020;-78
2022/03/01 07:51:50;;;;;;;22.53;14.37;;;;;;;3.14;59.08;102603.28;5332996;28;20386;-77
2022/03/01 07:54:22;;;;;;;18.60;14.47;;;;;;;3.13;57.99;102600.63;5334117;28;20024;-79
2022/03/01 07:56:53;;;;;;;18.27;13.37;;;;;;;3.12;58.31;102602.28;5331181;28;20024;-81
2022/03/01 07:59:24;;;;;;;19.67;13.67;;;;;;;3.12;58.93;102596.25;5329921;28;20375;-80
2022/03/01 08:01:56;;;;;;;20.03;13.73;;;;;;;3.12;58.75;102593.69;5329719;28;20153;-81
2022/03/01 08:04:27;;;;;;;19.03;12.90;;;;;;;3.12;58.21;102594.56;5328728;28;20031;-78
2022/03/01 08:06:58;;;;;;;19.40;14.27;;;;;;;3.12;58.06;102601.41;5328559;28;20035;-79
2022/03/01 08:09:30;;;;;;;20.33;13.27;;;;;;;3.14;58.49;102604.94;5328599;28;20107;-78
2022/03/01 08:12:02;;;;;;;20.03;12.50;;;;;;;3.21;58.30;102613.03;5328928;28;20049;-82
2022/03/01 08:14:35;;;;;;;20.80;13.80;;;;;;;3.29;57.23;102615.97;5328758;28;20023;-82
2022/03/01 08:17:06;;;;;;;18.95;12.20;;;;;;;3.43;57.63;102614.03;5328344;28;20034;-78
2022/03/01 08:19:37;;;;;;;19.77;13.63;;;;;;;3.55;57.31;102608.56;5328916;28;20028;-80
2022/03/01 08:22:09;;;;;;;19.70;13.73;;;;;;;3.62;56.79;102606.34;5330448;28;20063;-79
2022/03/01 08:24:41;;;;;;;23.30;13.55;;;;;;;3.75;57.47;102612.03;5332198;28;20031;-78
2022/03/01 08:27:12;;;;;;;20.53;13.97;;;;;;;3.81;57.08;102614.88;5331785;28;20168;-81
2022/03/01 08:29:44;;;;;;;23.23;13.00;;;;;;;3.86;56.21;102617.66;5328680;28;20019;-80
2022/03/01 08:32:15;;;;;;;22.70;13.60;;;;;;;3.91;55.71;102622.22;5328735;28;20038;-78
2022/03/01 08:34:47;;;;;;;19.63;13.93;;;;;;;3.97;55.76;102622.47;5328203;28;20019;-77
2022/03/01 08:37:18;;;;;;;25.23;14.57;;;;;;;4.08;57.09;102616.91;5327760;28;20024;-82
2022/03/01 08:39:49;;;;;;;30.07;14.97;;;;;;;4.19;55.68;102619.13;5327726;28;20051;-78
2022/03/01 08:42:21;;;;;;;24.17;15.30;;;;;;;4.27;55.41;102619.47;5327938;28;20031;-80
2022/03/01 08:44:52;;;;;;;26.77;13.97;;;;;;;4.41;55.96;102626.91;5327935;28;20026;-80
2022/03/01 08:47:26;;;;;;;20.83;14.77;;;;;;;4.52;54.93;102625.66;5328040;28;20030;-78
2022/03/01 08:49:57;;;;;;;20.02;14.30;;;;;;;4.65;54.99;102624.47;5308353;28;20129;-79
2022/03/01 08:52:28;;;;;;;20.27;13.60;;;;;;;4.83;54.25;102632.09;5327295;28;20112;-77
2022/03/01 08:55:01;;;;;;;21.37;14.07;;;;;;;5.07;53.65;102642.53;5327554;28;20027;-80
2022/03/01 08:57:33;;;;;;;21.52;13.07;;;;;;;5.30;53.02;102639.16;5327488;28;20039;-80
2022/03/01 09:00:07;;;;;;;17.87;11.83;;;;;;;5.51;50.66;102640.81;5327691;28;20474;-78
2022/03/01 09:02:39;;;;;;;19.60;12.77;;;;;;;5.65;50.29;102641.28;5327983;28;20190;-78
2022/03/01 09:05:10;;;;;;;18.70;13.50;;;;;;;5.77;50.07;102652.13;5327389;28;20027;-80
2022/03/01 09:07:42;;;;;;;22.13;13.47;;;;;;;5.88;48.63;102651.66;5327651;28;20032;-82
2022/03/01 09:10:13;;;;;;;19.63;12.57;;;;;;;6.12;48.99;102652.56;5327686;28;20019;-81
2022/03/01 09:12:45;;;;;;;19.10;13.67;;;;;;;6.03;47.86;102649.63;5327667;28;20375;-77
2022/03/01 09:15:17;;;;;;;18.97;11.97;;;;;;;5.98;48.03;102658.94;5328258;28;20413;-78
2022/03/01 09:17:49;;;;;;;22.15;13.68;;;;;;;6.19;48.04;102658.81;5327979;28;20031;-78
2022/03/01 09:20:21;;;;;;;26.20;13.50;;;;;;;6.28;48.02;102653.06;5334717;28;20043;-79
2022/03/01 09:22:53;;;;;;;19.97;13.20;;;;;;;6.36;47.70;102646.47;5340917;28;20160;-78
2022/03/01 09:25:25;;;;;;;18.50;13.07;;;;;;;6.44;47.84;102647.63;5352128;28;20019;-82
2022/03/01 09:27:57;;;;;;;19.27;12.65;;;;;;;6.41;47.31;102649.19;5343946;28;20058;-80
2022/03/01 09:30:29;;;;;;;16.87;12.00;;;;;;;6.36;47.60;102643.88;5327901;28;20019;-83
2022/03/01 09:33:01;;;;;;;22.58;12.50;;;;;;;6.40;48.08;102650.91;5328464;28;20030;-82
2022/03/01 09:35:32;;;;;;;20.73;13.53;;;;;;;6.42;47.51;102645.78;5309397;28;20023;-80
2022/03/01 09:38:04;;;;;;;17.43;12.00;;;;;;;6.52;47.57;102648.75;5326886;28;20077;-76
2022/03/01 09:40:35;;;;;;;17.50;12.20;;;;;;;6.57;47.37;102636.84;5327022;28;20051;-77
2022/03/01 09:43:07;;;;;;;22.30;12.43;;;;;;;6.81;47.70;102635.00;5326888;28;20063;-77
2022/03/01 09:45:39;;;;;;;17.85;12.68;;;;;;;6.94;46.62;102637.16;5327112;28;20072;-80
2022/03/01 09:48:11;;;;;;;16.67;12.23;;;;;;;6.97;46.60;102641.56;5327717;28;20023;-81
2022/03/01 09:50:43;;;;;;;20.03;12.33;;;;;;;7.02;45.88;102655.53;5328767;28;20107;-81
2022/03/01 09:53:14;;;;;;;19.88;13.23;;;;;;;7.11;46.94;102650.66;5328864;28;20020;-79
2022/03/01 09:55:46;;;;;;;18.40;13.40;;;;;;;7.16;46.00;102656.00;5329260;28;20217;-81
2022/03/01 09:58:17;;;;;;;22.33;14.13;;;;;;;7.18;45.91;102647.44;5329238;28;20019;-76
2022/03/01 10:00:49;;;;;;;16.10;12.40;;;;;;;7.21;45.93;102652.72;5329087;28;20099;-80
2022/03/01 10:03:20;;;;;;;19.80;13.10;;;;;;;7.33;45.82;102659.13;5328511;28;20106;-83
2022/03/01 10:05:52;;;;;;;26.23;13.33;;;;;;;7.39;46.12;102655.00;5328026;28;20058;-83
2022/03/01 10:08:24;;;;;;;22.97;13.20;;;;;;;7.34;45.37;102659.16;5326387;28;20048;-78
2022/03/01 10:10:57;;;;;;;19.08;12.50;;;;;;;7.36;46.45;102656.59;5308267;28;20038;-81
2022/03/01 10:13:31;;;;;;;21.42;13.90;;;;;;;7.22;45.68;102657.06;5326204;28;20020;-78
2022/03/01 10:16:09;;;;;;;21.00;12.68;;;;;;;7.34;45.78;102660.84;5326072;28;20054;-77
2022/03/01 10:18:49;;;;;;;19.25;12.70;;;;;;;7.44;45.71;102660.31;5326005;28;20032;-78
2022/03/01 10:21:23;;;;;;;19.45;12.13;;;;;;;7.55;45.38;102658.94;5326029;28;20020;-80
2022/03/01 10:23:58;;;;;;;19.90;13.48;;;;;;;7.67;44.83;102658.41;5325723;28;20024;-81
2022/03/01 10:26:31;;;;;;;16.73;11.90;;;;;;;7.83;43.51;102655.41;5326258;28;20027;-77
2022/03/01 10:29:04;;;;;;;17.30;12.48;;;;;;;7.80;43.60;102664.84;5326528;28;20466;-80
2022/03/01 10:31:36;;;;;;;17.00;12.38;;;;;;;7.76;43.20;102650.91;5327912;28;20031;-78
2022/03/01 10:34:10;;;;;;;19.83;13.50;;;;;;;8.00;43.76;102653.31;5335399;28;20020;-77
2022/03/01 10:36:48;;;;;;;19.17;12.45;;;;;;;8.38;43.26;102645.66;5338008;28;20034;-76
2022/03/01 10:39:27;;;;;;;18.38;11.90;;;;;;;8.68;41.60;102646.44;5336684;28;20043;-79
2022/03/01 10:41:58;;;;;;;18.55;11.77;;;;;;;9.21;41.93;102640.72;5329730;28;20059;-79
2022/03/01 10:44:30;;;;;;;19.57;12.80;;;;;;;9.48;39.73;102637.88;5328974;28;20047;-79
2022/03/01 10:47:03;;;;;;;17.03;12.50;;;;;;;9.68;38.92;102643.50;5327133;28;20169;-80
2022/03/01 10:49:35;;;;;;;18.40;12.20;;;;;;;9.80;38.56;102643.75;5327277;28;20336;-78
2022/03/01 10:52:09;;;;;;;15.55;11.70;;;;;;;9.63;38.30;102651.22;5326272;28;20027;-79
2022/03/01 10:54:42;;;;;;;19.67;11.43;;;;;;;9.79;38.71;102647.22;5325851;28;20019;-77
2022/03/01 10:57:22;;;;;;;17.38;12.02;;;;;;;10.38;38.08;102651.84;5325820;28;20409;-81
2022/03/01 10:59:53;;;;;;;20.33;11.60;;;;;;;10.69;37.30;102648.88;5325830;28;20054;-81
2022/03/01 11:02:24;;;;;;;16.70;12.50;;;;;;;11.22;36.47;102658.41;5325723;28;20012;-76
2022/03/01 11:04:56;;;;;;;16.97;12.17;;;;;;;10.99;35.67;102658.06;5307289;28;20450;-80
2022/03/01 11:07:29;;;;;;;18.67;12.47;;;;;;;10.68;38.22;102663.66;5325274;28;20527;-79
2022/03/01 11:10:05;;;;;;;15.93;12.80;;;;;;;10.31;37.99;102668.19;5325739;28;20016;-81
2022/03/01 11:12:36;;;;;;;17.02;12.23;;;;;;;9.85;38.82;102662.06;5325615;28;20486;-76
2022/03/01 11:15:35;;;;;;;17.20;12.33;;;;;;;9.86;38.97;102666.44;5326180;28;20024;-76
2022/03/01 11:18:17;;;;;;;17.10;11.57;;;;;;;9.85;40.04;102668.19;5326149;28;20027;-82
2022/03/01 11:20:49;;;;;;;17.75;12.63;;;;;;;9.97;39.58;102670.16;5325739;28;20024;-77
2022/03/01 11:23:26;;;;;;;17.25;12.13;;;;;;;10.11;39.14;102669.53;5325843;28;20024;-80
2022/03/01 11:26:35;;;;;;;18.73;12.63;;;;;;;9.94;39.93;102656.19;5307434;28;20344;-77
2022/03/01 11:29:11;;;;;;;18.17;12.48;;;;;;;9.89;40.75;102660.44;5202085;28;20057;-76
2022/03/01 11:31:55;;;;;;;16.73;12.55;;;;;;;10.09;40.30;102656.47;5218294;28;20501;-79
2022/03/01 11:34:26;;;;;;;20.80;12.55;;;;;;;10.59;41.72;102663.50;5219670;28;20034;-78
2022/03/01 11:36:58;;;;;;;18.00;12.50;;;;;;;10.70;39.42;102655.84;5218598;28;20041;-82
2022/03/01 11:39:35;;;;;;;19.10;12.87;;;;;;;10.63;38.70;102661.84;5218257;28;20034;-81
2022/03/01 11:42:16;;;;;;;15.77;12.55;;;;;;;10.51;39.13;102650.34;5218098;28;20041;-79